Time;durP1;ratioP1;P1;durP2;ratioP2;P2;SDS_P1;SDS_P2;PMS_P1;PMS_P2;Temp;Humidity;BMP_temperature;BMP_pressure;BME280_temperature;BME280_humidity;BME280_pressure;Samples;Min_cycle;Max_cycle;Signal;HPM_P1;HPM_P2
2020/07/26 00:01:58;;;;;;;4.7;2.2;;;;;;;16.4;80.71875;935.9216;;;;
2020/07/26 00:04:23;;;;;;;6.9;2.2;;;;;;;16.18;81.67188;935.9916;;;;
2020/07/26 00:06:49;;;;;;;4.7;2.5;;;;;;;16.15;82.13867;936.0316;;;;
2020/07/26 00:09:14;;;;;;;5.4;2.7;;;;;;;16.09;82.33887;935.9986;;;;
2020/07/26 00:11:40;;;;;;;7.8;2.8;;;;;;;16.1;82.57129;936.0491;;;;
2020/07/26 00:14:06;;;;;;;7.3;2.8;;;;;;;16.14;82.50879;936.0437;;;;
2020/07/26 00:16:34;;;;;;;6.4;2.7;;;;;;;16.13;82.06836;936.0454;;;;
2020/07/26 00:19:02;;;;;;;4.1;2.4;;;;;;;16.21;81.63184;936.0378;;;;
2020/07/26 00:21:27;;;;;;;8;2.6;;;;;;;16.23;81.61426;935.9799;;;;
2020/07/26 00:23:55;;;;;;;5.7;2.3;;;;;;;16.31;81.56934;935.9745;;;;
2020/07/26 00:26:21;;;;;;;4.8;2.3;;;;;;;16.35;81.08887;935.9202;;;;
2020/07/26 00:28:46;;;;;;;5.3;2.5;;;;;;;16.32;81.21094;935.8901;;;;
2020/07/26 00:31:11;;;;;;;5.9;2.5;;;;;;;16.29;81.34473;935.8922;;;;
2020/07/26 00:33:40;;;;;;;5.1;2.5;;;;;;;16.3;81.28809;935.8422;;;;
2020/07/26 00:36:05;;;;;;;4.6;2.3;;;;;;;16.25;81.46484;935.896;;;;
2020/07/26 00:38:31;;;;;;;4;2;;;;;;;16.19;81.8125;935.8678;;;;
2020/07/26 00:40:57;;;;;;;4.3;2.4;;;;;;;16.17;82.08594;935.8439;;;;
2020/07/26 00:43:22;;;;;;;3.5;2;;;;;;;16.19;81.70801;935.8035;;;;
2020/07/26 00:45:49;;;;;;;4.8;2.4;;;;;;;16.14;82.42773;935.7697;;;;
2020/07/26 00:48:14;;;;;;;7.5;2.3;;;;;;;16.14;81.78027;935.7561;;;;
2020/07/26 00:50:39;;;;;;;4.1;2;;;;;;;16.02;82.17285;935.8251;;;;
2020/07/26 00:53:04;;;;;;;4.8;2.1;;;;;;;15.94;82.34473;935.832;;;;
2020/07/26 00:55:29;;;;;;;4.2;2;;;;;;;15.8;83.15137;935.8353;;;;
2020/07/26 00:57:57;;;;;;;3.4;2.3;;;;;;;15.85;83.125;935.8462;;;;
2020/07/26 01:00:22;;;;;;;7;2.4;;;;;;;15.92;82.96582;935.8017;;;;
2020/07/26 01:02:47;;;;;;;5.8;2.3;;;;;;;15.94;82.78418;935.8038;;;;
2020/07/26 01:05:15;;;;;;;6.1;2.4;;;;;;;16.04;82.61719;935.7825;;;;
2020/07/26 01:07:40;;;;;;;5.3;2.3;;;;;;;16.12;82.30762;935.8055;;;;
2020/07/26 01:10:09;;;;;;;6.2;2.3;;;;;;;16.21;82.03711;935.7775;;;;
2020/07/26 01:12:34;;;;;;;4.8;2.4;;;;;;;16.23;81.68164;935.7364;;;;
2020/07/26 01:15:00;;;;;;;5.3;2.5;;;;;;;16.21;81.43555;935.7034;;;;
2020/07/26 01:17:29;;;;;;;5.4;2.2;;;;;;;16.2;81.44531;935.7157;;;;
2020/07/26 01:19:54;;;;;;;6.1;2.1;;;;;;;16.12;81.56738;935.6199;;;;
2020/07/26 01:22:20;;;;;;;4.4;2.3;;;;;;;16.16;81.77246;935.5895;;;;
2020/07/26 01:24:45;;;;;;;2.7;1.9;;;;;;;16.15;81.18066;935.5775;;;;
2020/07/26 01:27:13;;;;;;;2.8;1.8;;;;;;;15.74;82.54785;935.4799;;;;
2020/07/26 01:29:38;;;;;;;3.1;1.9;;;;;;;15.74;82.89648;935.5198;;;;
2020/07/26 01:32:05;;;;;;;3;1.8;;;;;;;15.88;82.32129;935.5461;;;;
2020/07/26 01:34:33;;;;;;;4.2;2.3;;;;;;;16.03;82.09375;935.5363;;;;
2020/07/26 01:36:58;;;;;;;5.4;2.5;;;;;;;16.07;81.13086;935.5251;;;;
2020/07/26 01:39:24;;;;;;;3.5;2.4;;;;;;;16.16;81.11328;935.543;;;;
2020/07/26 01:41:49;;;;;;;4.7;2.3;;;;;;;16.11;81.19727;935.51;;;;
2020/07/26 01:44:18;;;;;;;4;2;;;;;;;15.93;82.06543;935.5391;;;;
2020/07/26 01:46:43;;;;;;;6.2;2;;;;;;;15.95;82.08203;935.4937;;;;
2020/07/26 01:49:08;;;;;;;5;2.1;;;;;;;15.95;82.05762;935.5403;;;;
2020/07/26 01:51:35;;;;;;;4.3;2.1;;;;;;;16.04;81.92188;935.5296;;;;
2020/07/26 01:54:00;;;;;;;7.4;2.4;;;;;;;16.1;81.54102;935.5432;;;;
2020/07/26 01:56:27;;;;;;;5;2.1;;;;;;;16.1;81.23047;935.5173;;;;
2020/07/26 01:58:52;;;;;;;5.6;2.2;;;;;;;16.06;81.7998;935.543;;;;
2020/07/26 02:01:17;;;;;;;6.9;1.9;;;;;;;16.06;81.78809;935.4651;;;;
2020/07/26 02:03:47;;;;;;;4.4;2.1;;;;;;;16.11;81.91406;935.4939;;;;
2020/07/26 02:06:12;;;;;;;14.8;2.5;;;;;;;16.1;81.6123;935.5253;;;;
2020/07/26 02:08:39;;;;;;;6.4;2.4;;;;;;;16.05;81.74219;935.4836;;;;
2020/07/26 02:11:04;;;;;;;5.9;2.2;;;;;;;16.05;81.71582;935.4347;;;;
2020/07/26 02:13:31;;;;;;;4.9;1.8;;;;;;;16.02;81.91895;935.3594;;;;
2020/07/26 02:15:56;;;;;;;4.5;2;;;;;;;15.97;82.22266;935.4428;;;;
2020/07/26 02:18:23;;;;;;;4.6;2.1;;;;;;;15.69;83.26758;935.4838;;;;
2020/07/26 02:20:48;;;;;;;4.9;2.4;;;;;;;15.83;83.17969;935.5037;;;;
2020/07/26 02:23:14;;;;;;;5.3;2;;;;;;;16;82.26367;935.5186;;;;
2020/07/26 02:25:39;;;;;;;7.3;2.1;;;;;;;16.03;82.02441;935.5475;;;;
2020/07/26 02:28:06;;;;;;;4.1;1.9;;;;;;;16.1;81.7041;935.5422;;;;
2020/07/26 02:30:42;;;;;;;4.7;2;;;;;;;16.12;81.36035;935.5396;;;;
2020/07/26 02:33:08;;;;;;;3.9;1.9;;;;;;;16.13;81.50098;935.52;;;;
2020/07/26 02:35:33;;;;;;;3.4;1.8;;;;;;;16.17;81.78516;935.5419;;;;
2020/07/26 02:37:59;;;;;;;6.5;1.9;;;;;;;16.2;81.36426;935.5108;;;;
2020/07/26 02:40:26;;;;;;;3.3;1.9;;;;;;;16.2;81.54785;935.4941;;;;
2020/07/26 02:42:51;;;;;;;3.3;1.5;;;;;;;16.18;79.20996;935.5538;;;;
2020/07/26 02:45:30;;;;;;;3.2;1.9;;;;;;;16.36;80.54785;935.4925;;;;
2020/07/26 02:48:00;;;;;;;3.8;1.8;;;;;;;16.46;80.47559;935.3873;;;;
2020/07/26 02:50:25;;;;;;;3;1.7;;;;;;;16.5;80.1582;935.3929;;;;
2020/07/26 02:52:52;;;;;;;4.6;1.8;;;;;;;16.51;79.83398;935.4025;;;;
2020/07/26 02:55:17;;;;;;;4.9;1.8;;;;;;;16.44;80.12305;935.3837;;;;
2020/07/26 02:57:44;;;;;;;4;1.8;;;;;;;16.38;79.95117;935.4077;;;;
2020/07/26 03:00:09;;;;;;;4.8;1.8;;;;;;;16.38;80.875;935.4238;;;;
2020/07/26 03:02:34;;;;;;;3.7;1.8;;;;;;;16.35;80.82617;935.3487;;;;
2020/07/26 03:05:01;;;;;;;4.1;1.8;;;;;;;16.51;80.38965;935.3703;;;;
2020/07/26 03:07:26;;;;;;;4.1;2;;;;;;;16.66;80.12988;935.33;;;;
2020/07/26 03:09:52;;;;;;;3.7;1.7;;;;;;;16.62;79.94824;935.3627;;;;
2020/07/26 03:12:18;;;;;;;2.9;1.9;;;;;;;16.56;80.19141;935.3766;;;;
2020/07/26 03:14:44;;;;;;;5.9;1.9;;;;;;;16.51;80.12305;935.3832;;;;
2020/07/26 03:17:10;;;;;;;2.9;1.5;;;;;;;16.41;79.60938;935.3245;;;;
2020/07/26 03:19:35;;;;;;;2.9;1.4;;;;;;;16.51;79.87012;935.343;;;;
2020/07/26 03:22:07;;;;;;;3.6;1.8;;;;;;;16.52;80.26563;935.3516;;;;
2020/07/26 03:24:38;;;;;;;5.5;1.8;;;;;;;16.67;79.19336;935.4065;;;;
2020/07/26 03:27:09;;;;;;;7.3;1.8;;;;;;;16.82;78.75781;935.3855;;;;
2020/07/26 03:29:35;;;;;;;3;1.7;;;;;;;16.92;78.46094;935.3474;;;;
2020/07/26 03:32:03;;;;;;;3.3;1.8;;;;;;;16.85;78.49609;935.4749;;;;
2020/07/26 03:34:25;;;;;;;3.9;1.9;;;;;;;16.96;78.6416;935.4553;;;;
2020/07/26 03:36:52;;;;;;;4.5;1.8;;;;;;;17.08;77.77148;935.4427;;;;
2020/07/26 03:39:22;;;;;;;4.1;2;;;;;;;17.15;77.4834;935.4268;;;;
2020/07/26 03:41:53;;;;;;;4.2;1.9;;;;;;;17.28;76.78516;935.435;;;;
2020/07/26 03:44:18;;;;;;;3.6;1.9;;;;;;;17.37;77.01074;935.4217;;;;
2020/07/26 03:46:43;;;;;;;5.7;2.1;;;;;;;17.21;77.08691;935.4215;;;;
2020/07/26 03:49:10;;;;;;;5.9;2.4;;;;;;;16.96;78.6416;935.3619;;;;
2020/07/26 03:51:35;;;;;;;4.4;2.3;;;;;;;16.9;78.88672;935.392;;;;
2020/07/26 03:54:01;;;;;;;5.5;2.2;;;;;;;16.7;80.25195;935.4606;;;;
2020/07/26 03:56:26;;;;;;;4.6;2.1;;;;;;;16.62;80.58496;935.4064;;;;
2020/07/26 03:58:53;;;;;;;4.7;2.1;;;;;;;16.5;81.01465;935.4556;;;;
2020/07/26 04:02:42;;;;;;;5.5;2.2;;;;;;;16.41;81.52051;935.5645;;;;
2020/07/26 04:05:07;;;;;;;4.9;2.3;;;;;;;16.45;81.69727;935.6334;;;;
2020/07/26 04:07:36;;;;;;;5.1;2.5;;;;;;;16.54;81.68262;935.6542;;;;
2020/07/26 04:10:03;;;;;;;5.5;2.6;;;;;;;16.41;82.47949;935.6859;;;;
2020/07/26 04:12:29;;;;;;;6.2;2.1;;;;;;;16.29;82.20117;935.7355;;;;
2020/07/26 04:14:54;;;;;;;5.6;2.3;;;;;;;16.37;82.81934;935.6923;;;;
2020/07/26 04:17:19;;;;;;;6.9;2.4;;;;;;;16.45;82.54199;935.6399;;;;
2020/07/26 04:19:49;;;;;;;6.4;2.3;;;;;;;16.62;82.05469;935.6958;;;;
2020/07/26 04:22:14;;;;;;;6.7;2.1;;;;;;;16.68;82.03027;935.7441;;;;
2020/07/26 04:24:43;;;;;;;7.1;2.3;;;;;;;16.76;81.69824;935.7515;;;;
2020/07/26 04:27:07;;;;;;;6.2;2.2;;;;;;;16.81;81.43066;935.7642;;;;
2020/07/26 04:29:34;;;;;;;4.8;2.1;;;;;;;16.85;81.36914;935.8176;;;;
2020/07/26 04:32:00;;;;;;;6.2;2.1;;;;;;;16.81;80.77051;935.8527;;;;
2020/07/26 04:34:28;;;;;;;4.2;2;;;;;;;16.84;80.62402;935.9448;;;;
2020/07/26 04:36:53;;;;;;;4.6;1.6;;;;;;;16.88;79.72949;936.0511;;;;
2020/07/26 04:39:22;;;;;;;2.7;1.5;;;;;;;16.87;78.69629;936.1044;;;;
2020/07/26 04:41:47;;;;;;;2.6;1.6;;;;;;;16.79;79.07422;936.051;;;;
2020/07/26 04:44:15;;;;;;;1.8;1.5;;;;;;;16.87;80.0166;936.0648;;;;
2020/07/26 04:46:41;;;;;;;4.6;1.6;;;;;;;16.85;80.17578;935.9808;;;;
2020/07/26 04:49:06;;;;;;;2.9;1.7;;;;;;;17.04;80.69727;935.9832;;;;
2020/07/26 04:51:35;;;;;;;3.4;2;;;;;;;17.11;81.38086;936.0157;;;;
2020/07/26 04:54:00;;;;;;;3.8;1.9;;;;;;;16.89;82.09375;935.8644;;;;
2020/07/26 04:56:26;;;;;;;3.2;1.9;;;;;;;16.9;82.68652;935.9124;;;;
2020/07/26 04:58:52;;;;;;;4.2;2.1;;;;;;;16.96;83.27637;935.8759;;;;
2020/07/26 05:01:17;;;;;;;3.7;2.1;;;;;;;16.97;83.37109;935.838;;;;
2020/07/26 05:03:45;;;;;;;2.6;1.9;;;;;;;16.99;82.33301;935.8094;;;;
2020/07/26 05:06:10;;;;;;;5.5;1.8;;;;;;;16.93;82.03125;935.7847;;;;
2020/07/26 05:08:36;;;;;;;4.1;1.9;;;;;;;16.9;83.16211;935.7757;;;;
2020/07/26 05:11:01;;;;;;;2.8;1.8;;;;;;;16.92;83.52441;935.7495;;;;
2020/07/26 05:13:28;;;;;;;5;1.7;;;;;;;16.88;83.59863;935.7944;;;;
2020/07/26 05:15:55;;;;;;;3.4;1.7;;;;;;;16.88;83.3418;935.7391;;;;
2020/07/26 05:18:20;;;;;;;3.2;1.7;;;;;;;16.85;82.0293;935.7814;;;;
2020/07/26 05:20:47;;;;;;;3;1.5;;;;;;;16.96;82.66211;935.7416;;;;
2020/07/26 05:23:12;;;;;;;2.6;1.8;;;;;;;17.03;83.02344;935.7405;;;;
2020/07/26 05:25:38;;;;;;;2.4;1.7;;;;;;;17.13;82.63867;935.6903;;;;
2020/07/26 05:28:03;;;;;;;4.6;2;;;;;;;17.13;82.98633;935.7675;;;;
2020/07/26 05:30:32;;;;;;;5.3;2.2;;;;;;;17.23;82.93555;935.781;;;;
2020/07/26 05:32:58;;;;;;;2.5;1.6;;;;;;;17.28;81.76074;935.8025;;;;
2020/07/26 05:35:23;;;;;;;3;1.8;;;;;;;17.29;81.58887;935.8748;;;;
2020/07/26 05:37:51;;;;;;;1.9;1.6;;;;;;;17.38;80.57324;935.894;;;;
2020/07/26 05:40:16;;;;;;;2.5;1.5;;;;;;;17.49;80.29102;935.8855;;;;
2020/07/26 05:42:42;;;;;;;3.3;1.7;;;;;;;17.58;80.2959;935.787;;;;
2020/07/26 05:45:07;;;;;;;1.9;1.7;;;;;;;17.63;80.40039;935.8473;;;;
2020/07/26 05:47:34;;;;;;;2.9;1.8;;;;;;;17.68;80.73438;935.9224;;;;
2020/07/26 05:50:00;;;;;;;2.6;1.7;;;;;;;17.76;81.24805;935.9318;;;;
2020/07/26 05:52:25;;;;;;;3.6;1.8;;;;;;;17.82;80.63086;935.9725;;;;
2020/07/26 05:54:50;;;;;;;2.9;1.8;;;;;;;17.75;82.08203;936.0503;;;;
2020/07/26 05:57:15;;;;;;;2.9;1.9;;;;;;;17.92;81.76465;936.0542;;;;
2020/07/26 05:59:41;;;;;;;2.4;1.9;;;;;;;17.91;82.69141;936.1487;;;;
2020/07/26 06:02:06;;;;;;;5.4;1.8;;;;;;;17.93;82.59082;936.2048;;;;
2020/07/26 06:04:35;;;;;;;2.6;1.7;;;;;;;17.96;82.93262;936.4039;;;;
2020/07/26 06:07:00;;;;;;;3.2;2.1;;;;;;;18.03;82.1543;936.5034;;;;
2020/07/26 06:09:25;;;;;;;4.9;2;;;;;;;18.04;81.03125;936.6272;;;;
2020/07/26 06:11:50;;;;;;;3.3;1.7;;;;;;;17.8;81.96094;936.5867;;;;
2020/07/26 06:14:16;;;;;;;3;1.9;;;;;;;17.85;82.95801;936.6398;;;;
2020/07/26 06:16:41;;;;;;;3.6;2.3;;;;;;;17.95;83.45313;936.6312;;;;
2020/07/26 06:19:08;;;;;;;3.4;2.1;;;;;;;18.05;83.31152;936.6534;;;;
2020/07/26 06:21:33;;;;;;;4.3;2.1;;;;;;;18.12;83.45215;936.6592;;;;
2020/07/26 06:23:59;;;;;;;2.6;1.9;;;;;;;18.01;84.75488;936.7524;;;;
2020/07/26 06:26:24;;;;;;;4.9;2.4;;;;;;;17.98;85.53711;936.8329;;;;
2020/07/26 06:28:49;;;;;;;2.8;2;;;;;;;17.97;85.18848;936.8934;;;;
2020/07/26 06:31:14;;;;;;;3.8;2.4;;;;;;;;;;;;;
2020/07/26 06:33:40;;;;;;;5;2;;;;;;;;;;;;;
2020/07/26 06:36:05;;;;;;;2.9;1.9;;;;;;;;;;;;;
2020/07/26 06:38:31;;;;;;;4.7;2.2;;;;;;;;;;;;;
2020/07/26 06:40:56;;;;;;;3.9;2.2;;;;;;;;;;;;;
2020/07/26 06:43:21;;;;;;;3.2;2.1;;;;;;;;;;;;;
2020/07/26 06:45:47;;;;;;;3.2;2;;;;;;;;;;;;;
2020/07/26 06:48:12;;;;;;;5.2;2.4;;;;;;;;;;;;;
2020/07/26 06:50:37;;;;;;;3.8;2.3;;;;;;;;;;;;;
2020/07/26 06:53:02;;;;;;;3.9;2.3;;;;;;;;;;;;;
2020/07/26 06:55:27;;;;;;;3.5;2.2;;;;;;;;;;;;;
2020/07/26 06:57:53;;;;;;;2.8;2.2;;;;;;;;;;;;;
2020/07/26 07:00:18;;;;;;;3.1;2.1;;;;;;;;;;;;;
2020/07/26 07:02:44;;;;;;;3.3;2;;;;;;;;;;;;;
2020/07/26 07:05:10;;;;;;;3.7;2.2;;;;;;;;;;;;;
2020/07/26 07:07:35;;;;;;;3.6;2.3;;;;;;;;;;;;;
2020/07/26 07:10:00;;;;;;;3.4;2.3;;;;;;;;;;;;;
2020/07/26 07:12:25;;;;;;;2.7;2.2;;;;;;;;;;;;;
2020/07/26 07:14:51;;;;;;;4.9;2.4;;;;;;;;;;;;;
2020/07/26 07:17:16;;;;;;;5;2.3;;;;;;;;;;;;;
2020/07/26 07:19:42;;;;;;;3.8;2.3;;;;;;;;;;;;;
2020/07/26 07:22:08;;;;;;;3.9;2;;;;;;;;;;;;;
2020/07/26 07:24:33;;;;;;;2.4;2;;;;;;;;;;;;;
2020/07/26 07:26:58;;;;;;;3.5;2.1;;;;;;;;;;;;;
2020/07/26 07:29:25;;;;;;;3.9;2;;;;;;;;;;;;;
2020/07/26 07:31:50;;;;;;;3.2;1.9;;;;;;;;;;;;;
2020/07/26 07:34:15;;;;;;;3.8;1.9;;;;;;;;;;;;;
2020/07/26 07:36:40;;;;;;;3.9;2.1;;;;;;;;;;;;;
2020/07/26 07:39:07;;;;;;;2.6;1.9;;;;;;;;;;;;;
2020/07/26 07:41:32;;;;;;;3.9;2.2;;;;;;;;;;;;;
2020/07/26 07:43:58;;;;;;;3.3;2.3;;;;;;;;;;;;;
2020/07/26 07:46:23;;;;;;;2.5;2;;;;;;;;;;;;;
2020/07/26 07:48:50;;;;;;;1.8;1.7;;;;;;;;;;;;;
2020/07/26 07:51:15;;;;;;;6.9;3.2;;;;;;;;;;;;;
2020/07/26 07:53:41;;;;;;;4.4;2.9;;;;;;;;;;;;;
2020/07/26 07:56:07;;;;;;;3.9;2.5;;;;;;;;;;;;;
2020/07/26 07:58:33;;;;;;;2.9;2.1;;;;;;;;;;;;;
2020/07/26 08:00:58;;;;;;;3.4;1.8;;;;;;;;;;;;;
2020/07/26 08:03:25;;;;;;;4.5;2.1;;;;;;;;;;;;;
2020/07/26 08:05:50;;;;;;;4.8;2.1;;;;;;;;;;;;;
2020/07/26 08:08:15;;;;;;;4.5;2.2;;;;;;;;;;;;;
2020/07/26 08:10:40;;;;;;;3.4;2;;;;;;;;;;;;;
2020/07/26 08:13:06;;;;;;;3.3;1.7;;;;;;;;;;;;;
2020/07/26 08:15:31;;;;;;;2.1;1.7;;;;;;;;;;;;;
2020/07/26 08:17:58;;;;;;;3.3;1.7;;;;;;;;;;;;;
2020/07/26 08:20:23;;;;;;;3.4;1.7;;;;;;;;;;;;;
2020/07/26 08:22:48;;;;;;;3.9;1.7;;;;;;;;;;;;;
2020/07/26 08:25:13;;;;;;;2.8;1.7;;;;;;;;;;;;;
2020/07/26 08:27:38;;;;;;;2.8;1.3;;;;;;;;;;;;;
2020/07/26 08:30:03;;;;;;;2.8;1.8;;;;;;;;;;;;;
2020/07/26 08:32:28;;;;;;;3.1;1.8;;;;;;;;;;;;;
2020/07/26 08:34:54;;;;;;;3.1;2.4;;;;;;;;;;;;;
2020/07/26 08:37:19;;;;;;;3.6;3.2;;;;;;;;;;;;;
2020/07/26 08:39:45;;;;;;;3.9;2.7;;;;;;;;;;;;;
2020/07/26 08:42:10;;;;;;;4.4;2.4;;;;;;;;;;;;;
2020/07/26 08:44:36;;;;;;;5;2.7;;;;;;;;;;;;;
2020/07/26 08:47:01;;;;;;;3.9;2.4;;;;;;;;;;;;;
2020/07/26 08:49:28;;;;;;;5.3;2.6;;;;;;;;;;;;;
2020/07/26 08:51:52;;;;;;;3.4;2.5;;;;;;;;;;;;;
2020/07/26 08:54:21;;;;;;;4.5;2.3;;;;;;;;;;;;;
2020/07/26 08:56:46;;;;;;;4.5;2.3;;;;;;;;;;;;;
2020/07/26 08:59:11;;;;;;;3.5;2;;;;;;;;;;;;;
2020/07/26 09:01:37;;;;;;;2.4;1.9;;;;;;;;;;;;;
2020/07/26 09:04:02;;;;;;;3.9;2.2;;;;;;;;;;;;;
2020/07/26 09:06:27;;;;;;;2.3;1.8;;;;;;;;;;;;;
2020/07/26 09:08:52;;;;;;;2.5;1.7;;;;;;;;;;;;;
2020/07/26 09:11:17;;;;;;;3.4;1.6;;;;;;;;;;;;;
2020/07/26 09:13:42;;;;;;;2.1;1.7;;;;;;;;;;;;;
2020/07/26 09:16:07;;;;;;;2.2;1.4;;;;;;;;;;;;;
2020/07/26 09:18:33;;;;;;;3.1;1.3;;;;;;;;;;;;;
2020/07/26 09:20:58;;;;;;;2.6;1.4;;;;;;;;;;;;;
2020/07/26 09:23:23;;;;;;;3.5;1.2;;;;;;;;;;;;;
2020/07/26 09:25:48;;;;;;;3.4;1.1;;;;;;;;;;;;;
2020/07/26 09:28:13;;;;;;;2;1;;;;;;;;;;;;;
2020/07/26 09:30:40;;;;;;;2.3;1.3;;;;;;;;;;;;;
2020/07/26 09:33:05;;;;;;;1.4;1.2;;;;;;;;;;;;;
2020/07/26 09:35:31;;;;;;;2.6;1;;;;;;;;;;;;;
2020/07/26 09:37:56;;;;;;;2.2;1;;;;;;;;;;;;;
2020/07/26 09:40:23;;;;;;;1.9;1;;;;;;;;;;;;;
2020/07/26 09:42:48;;;;;;;1.3;1;;;;;;;;;;;;;
2020/07/26 09:45:20;;;;;;;1.8;1;;;;;;;;;;;;;
2020/07/26 09:47:47;;;;;;;3;1.3;;;;;;;;;;;;;
2020/07/26 09:50:11;;;;;;;1.3;1;;;;;;;;;;;;;
2020/07/26 09:52:36;;;;;;;2;1;;;;;;;;;;;;;
2020/07/26 09:55:01;;;;;;;2.7;1.1;;;;;;;;;;;;;
2020/07/26 09:57:28;;;;;;;2.1;1.1;;;;;;;;;;;;;
2020/07/26 09:59:53;;;;;;;2.8;1.3;;;;;;;;;;;;;
2020/07/26 10:02:19;;;;;;;2.8;1.1;;;;;;;;;;;;;
2020/07/26 10:04:44;;;;;;;2.6;1.2;;;;;;;;;;;;;
2020/07/26 10:07:10;;;;;;;1.6;1.1;;;;;;;;;;;;;
2020/07/26 10:09:35;;;;;;;3.6;1.3;;;;;;;;;;;;;
2020/07/26 10:12:02;;;;;;;1.5;0.8;;;;;;;;;;;;;
2020/07/26 10:14:28;;;;;;;1.2;0.9;;;;;;;;;;;;;
2020/07/26 10:16:53;;;;;;;2.1;1;;;;;;;;;;;;;
2020/07/26 10:19:18;;;;;;;1;0.8;;;;;;;;;;;;;
2020/07/26 10:21:44;;;;;;;4.2;1;;;;;;;;;;;;;
2020/07/26 10:24:09;;;;;;;1.7;0.8;;;;;;;;;;;;;
2020/07/26 10:26:34;;;;;;;1.8;1;;;;;;;;;;;;;
2020/07/26 10:28:59;;;;;;;1;0.9;;;;;;;;;;;;;
2020/07/26 10:31:24;;;;;;;2.1;0.8;;;;;;;;;;;;;
2020/07/26 10:33:49;;;;;;;1.1;0.9;;;;;;;;;;;;;
2020/07/26 10:36:14;;;;;;;1.4;0.9;;;;;;;;;;;;;
2020/07/26 10:38:39;;;;;;;3;0.9;;;;;;;;;;;;;
2020/07/26 10:41:04;;;;;;;0.8;0.7;;;;;;;;;;;;;
2020/07/26 10:43:30;;;;;;;1.7;0.9;;;;;;;;;;;;;
2020/07/26 10:45:55;;;;;;;2.1;0.8;;;;;;;;;;;;;
2020/07/26 10:48:20;;;;;;;1.3;0.7;;;;;;;;;;;;;
2020/07/26 10:50:45;;;;;;;1.8;0.8;;;;;;;;;;;;;
2020/07/26 10:53:11;;;;;;;1;0.8;;;;;;;;;;;;;
2020/07/26 10:55:36;;;;;;;0.8;0.7;;;;;;;;;;;;;
2020/07/26 10:58:01;;;;;;;1.3;0.7;;;;;;;;;;;;;
2020/07/26 11:00:28;;;;;;;1.7;0.9;;;;;;;;;;;;;
2020/07/26 11:02:53;;;;;;;1.5;0.8;;;;;;;;;;;;;
2020/07/26 11:05:18;;;;;;;1.7;0.8;;;;;;;;;;;;;
2020/07/26 11:07:43;;;;;;;2.9;0.7;;;;;;;;;;;;;
2020/07/26 11:10:10;;;;;;;1.3;0.7;;;;;;;;;;;;;
2020/07/26 11:12:35;;;;;;;2;1;;;;;;;;;;;;;
2020/07/26 11:15:00;;;;;;;1.4;0.8;;;;;;;;;;;;;
2020/07/26 11:17:25;;;;;;;1.3;0.8;;;;;;;;;;;;;
2020/07/26 11:19:50;;;;;;;2;0.8;;;;;;;;;;;;;
2020/07/26 11:22:15;;;;;;;2.9;1;;;;;;;;;;;;;
2020/07/26 11:24:40;;;;;;;2;0.8;;;;;;;;;;;;;
2020/07/26 11:27:06;;;;;;;2.8;0.9;;;;;;;;;;;;;
2020/07/26 11:29:30;;;;;;;2.2;0.7;;;;;;;;;;;;;
2020/07/26 11:31:57;;;;;;;2.4;0.8;;;;;;;;;;;;;
2020/07/26 11:34:22;;;;;;;1.3;0.8;;;;;;;;;;;;;
2020/07/26 11:36:48;;;;;;;1.5;0.8;;;;;;;;;;;;;
2020/07/26 11:39:13;;;;;;;1.4;0.7;;;;;;;;;;;;;
2020/07/26 11:41:39;;;;;;;1.4;0.8;;;;;;;;;;;;;
2020/07/26 11:44:04;;;;;;;1;0.7;;;;;;;;;;;;;
2020/07/26 11:46:29;;;;;;;1.7;0.8;;;;;;;;;;;;;
2020/07/26 11:48:54;;;;;;;1.6;0.9;;;;;;;;;;;;;
2020/07/26 11:51:19;;;;;;;1.8;0.9;;;;;;;;;;;;;
2020/07/26 11:53:44;;;;;;;1.9;0.9;;;;;;;;;;;;;
2020/07/26 11:56:09;;;;;;;1.7;0.8;;;;;;;;;;;;;
2020/07/26 11:58:34;;;;;;;1.2;0.7;;;;;;;;;;;;;
2020/07/26 12:00:59;;;;;;;2.3;0.9;;;;;;;;;;;;;
2020/07/26 12:03:24;;;;;;;2.9;0.9;;;;;;;;;;;;;
2020/07/26 12:05:49;;;;;;;2.1;1.1;;;;;;;;;;;;;
2020/07/26 12:08:15;;;;;;;1;0.9;;;;;;;;;;;;;
2020/07/26 12:10:41;;;;;;;1.7;0.8;;;;;;;;;;;;;
2020/07/26 12:13:06;;;;;;;2.5;0.8;;;;;;;;;;;;;
2020/07/26 12:15:32;;;;;;;2.1;1;;;;;;;;;;;;;
2020/07/26 12:17:57;;;;;;;3.4;0.9;;;;;;;;;;;;;
2020/07/26 12:20:22;;;;;;;3.2;1;;;;;;;;;;;;;
2020/07/26 12:22:47;;;;;;;2.7;1;;;;;;;;;;;;;
2020/07/26 12:25:13;;;;;;;2.6;1;;;;;;;;;;;;;
2020/07/26 12:27:38;;;;;;;2.6;0.9;;;;;;;;;;;;;
2020/07/26 12:30:03;;;;;;;2.5;1;;;;;;;;;;;;;
2020/07/26 12:32:28;;;;;;;2.4;1;;;;;;;;;;;;;
2020/07/26 12:34:53;;;;;;;3.8;1.1;;;;;;;;;;;;;
2020/07/26 12:37:18;;;;;;;3.9;1.1;;;;;;;;;;;;;
2020/07/26 12:39:43;;;;;;;3.9;1.3;;;;;;;;;;;;;
2020/07/26 12:42:11;;;;;;;4.5;1.7;;;;;;;;;;;;;
2020/07/26 12:44:36;;;;;;;3;1.3;;;;;;;;;;;;;
2020/07/26 12:47:01;;;;;;;1.6;0.9;;;;;;;;;;;;;
2020/07/26 12:49:26;;;;;;;3.8;1.2;;;;;;;;;;;;;
2020/07/26 12:51:52;;;;;;;2.7;1.1;;;;;;;;;;;;;
2020/07/26 12:54:17;;;;;;;3.8;1.1;;;;;;;;;;;;;
2020/07/26 12:56:42;;;;;;;2.8;1.1;;;;;;;;;;;;;
2020/07/26 12:59:07;;;;;;;2.8;1;;;;;;;;;;;;;
2020/07/26 13:01:32;;;;;;;1.9;1.1;;;;;;;;;;;;;
2020/07/26 13:03:57;;;;;;;4.7;1.3;;;;;;;;;;;;;
2020/07/26 13:06:22;;;;;;;2.7;1.1;;;;;;;;;;;;;
2020/07/26 13:08:48;;;;;;;2;1.1;;;;;;;;;;;;;
2020/07/26 13:11:13;;;;;;;2.3;1.1;;;;;;;;;;;;;
2020/07/26 13:13:38;;;;;;;2.8;1.1;;;;;;;;;;;;;
2020/07/26 13:16:03;;;;;;;2.3;1;;;;;;;;;;;;;
2020/07/26 13:18:29;;;;;;;2.8;1;;;;;;;;;;;;;
2020/07/26 13:20:54;;;;;;;3.5;1.1;;;;;;;;;;;;;
2020/07/26 13:23:20;;;;;;;1.8;1.2;;;;;;;;;;;;;
2020/07/26 13:25:45;;;;;;;2.3;1.1;;;;;;;;;;;;;
2020/07/26 13:28:10;;;;;;;1.8;1.3;;;;;;;;;;;;;
2020/07/26 13:30:35;;;;;;;2.3;1;;;;;;;;;;;;;
2020/07/26 13:33:00;;;;;;;2.8;1.1;;;;;;;;;;;;;
2020/07/26 13:35:26;;;;;;;4.7;1.2;;;;;;;;;;;;;
2020/07/26 13:37:51;;;;;;;3;1.1;;;;;;;;;;;;;
2020/07/26 13:40:16;;;;;;;2;1.1;;;;;;;;;;;;;
2020/07/26 13:42:42;;;;;;;2.8;1.2;;;;;;;;;;;;;
2020/07/26 13:45:08;;;;;;;1.6;1;;;;;;;;;;;;;
2020/07/26 13:47:33;;;;;;;3.1;1.2;;;;;;;;;;;;;
2020/07/26 13:49:58;;;;;;;1.3;1;;;;;;;;;;;;;
2020/07/26 13:52:24;;;;;;;2.7;1.2;;;;;;;;;;;;;
2020/07/26 13:54:52;;;;;;;2;1.2;;;;;;;;;;;;;
2020/07/26 13:57:17;;;;;;;2.3;1.2;;;;;;;;;;;;;
2020/07/26 13:59:42;;;;;;;1.8;1;;;;;;;;;;;;;
2020/07/26 14:02:07;;;;;;;1.4;1.1;;;;;;;;;;;;;
2020/07/26 14:04:32;;;;;;;2.4;1;;;;;;;;;;;;;
2020/07/26 14:06:57;;;;;;;1.8;1;;;;;;;;;;;;;
2020/07/26 14:09:22;;;;;;;2.7;1;;;;;;;;;;;;;
2020/07/26 14:11:48;;;;;;;2.9;1.3;;;;;;;;;;;;;
2020/07/26 14:14:12;;;;;;;5.2;1.3;;;;;;;;;;;;;
2020/07/26 14:16:38;;;;;;;2.6;1.2;;;;;;;;;;;;;
2020/07/26 14:19:03;;;;;;;3.4;0.9;;;;;;;;;;;;;
2020/07/26 14:21:29;;;;;;;2;1;;;;;;;;;;;;;
2020/07/26 14:23:54;;;;;;;2.1;1.2;;;;;;;;;;;;;
2020/07/26 14:26:20;;;;;;;3.3;1.1;;;;;;;;;;;;;
2020/07/26 14:28:45;;;;;;;1.9;1.1;;;;;;;;;;;;;
2020/07/26 14:31:13;;;;;;;3.2;1.4;;;;;;;;;;;;;
2020/07/26 14:33:38;;;;;;;2.5;1;;;;;;;;;;;;;
2020/07/26 14:36:04;;;;;;;2.4;1.1;;;;;;;;;;;;;
2020/07/26 14:38:28;;;;;;;3;1.2;;;;;;;;;;;;;
2020/07/26 14:40:54;;;;;;;2.4;1.3;;;;;;;;;;;;;
2020/07/26 14:43:19;;;;;;;3.3;1.1;;;;;;;;;;;;;
2020/07/26 14:45:46;;;;;;;2.5;1.2;;;;;;;;;;;;;
2020/07/26 14:48:11;;;;;;;3.2;1.4;;;;;;;;;;;;;
2020/07/26 14:50:40;;;;;;;2.8;1.1;;;;;;;;;;;;;
2020/07/26 14:53:05;;;;;;;3;1.3;;;;;;;;;;;;;
2020/07/26 14:55:29;;;;;;;2.7;1.2;;;;;;;;;;;;;
2020/07/26 14:57:54;;;;;;;2.3;1.3;;;;;;;;;;;;;
2020/07/26 15:00:19;;;;;;;2.3;1.2;;;;;;;;;;;;;
2020/07/26 15:02:44;;;;;;;2;1.2;;;;;;;;;;;;;
2020/07/26 15:05:09;;;;;;;2.3;1.4;;;;;;;;;;;;;
2020/07/26 15:07:34;;;;;;;1.7;1.2;;;;;;;;;;;;;
2020/07/26 15:09:59;;;;;;;7.8;1.9;;;;;;;;;;;;;
2020/07/26 15:12:24;;;;;;;5.8;3.9;;;;;;;;;;;;;
2020/07/26 15:14:49;;;;;;;5.4;1.6;;;;;;;;;;;;;
2020/07/26 15:17:15;;;;;;;2.2;1.3;;;;;;;;;;;;;
2020/07/26 15:19:40;;;;;;;4.1;1.8;;;;;;;;;;;;;
2020/07/26 15:22:05;;;;;;;3.1;1.5;;;;;;;;;;;;;
2020/07/26 15:24:31;;;;;;;2;1.2;;;;;;;;;;;;;
2020/07/26 15:26:55;;;;;;;3;1.4;;;;;;;;;;;;;
2020/07/26 15:29:21;;;;;;;2.9;1.3;;;;;;;;;;;;;
2020/07/26 15:31:46;;;;;;;4;1.6;;;;;;;;;;;;;
2020/07/26 15:34:11;;;;;;;3.4;1.3;;;;;;;;;;;;;
2020/07/26 15:36:36;;;;;;;3.2;1.3;;;;;;;;;;;;;
2020/07/26 15:39:01;;;;;;;2.5;1.4;;;;;;;;;;;;;
2020/07/26 15:41:26;;;;;;;2.7;1.3;;;;;;;;;;;;;
2020/07/26 15:43:51;;;;;;;4.1;1.2;;;;;;;;;;;;;
2020/07/26 15:46:17;;;;;;;2.3;1.2;;;;;;;;;;;;;
2020/07/26 15:48:42;;;;;;;1.8;1.2;;;;;;;;;;;;;
2020/07/26 15:51:11;;;;;;;2;1.1;;;;;;;;;;;;;
2020/07/26 15:53:36;;;;;;;4.4;1.4;;;;;;;;;;;;;
2020/07/26 15:56:01;;;;;;;2.6;1.1;;;;;;;;;;;;;
2020/07/26 15:58:27;;;;;;;2.5;1.3;;;;;;;;;;;;;
2020/07/26 16:00:55;;;;;;;2.7;1.3;;;;;;;;;;;;;
2020/07/26 16:03:20;;;;;;;1.7;1.2;;;;;;;;;;;;;
2020/07/26 16:05:45;;;;;;;3.8;1.4;;;;;;;;;;;;;
2020/07/26 16:08:10;;;;;;;2.4;1.3;;;;;;;;;;;;;
2020/07/26 16:10:35;;;;;;;3.6;1.4;;;;;;;;;;;;;
2020/07/26 16:13:00;;;;;;;1.8;1.3;;;;;;;;;;;;;
2020/07/26 16:15:30;;;;;;;2.6;1.3;;;;;;;;;;;;;
2020/07/26 16:17:54;;;;;;;2.8;1.4;;;;;;;;;;;;;
2020/07/26 16:20:21;;;;;;;2.2;1.3;;;;;;;;;;;;;
2020/07/26 16:22:46;;;;;;;2.7;1.1;;;;;;;;;;;;;
2020/07/26 16:25:14;;;;;;;1.9;1.2;;;;;;;;;;;;;
2020/07/26 16:27:39;;;;;;;2.3;1.2;;;;;;;;;;;;;
2020/07/26 16:30:04;;;;;;;4.9;1.3;;;;;;;;;;;;;
2020/07/26 16:32:29;;;;;;;3.1;1.2;;;;;;;;;;;;;
2020/07/26 16:34:54;;;;;;;3.5;1.5;;;;;;;;;;;;;
2020/07/26 16:37:19;;;;;;;3.3;1.5;;;;;;;;;;;;;
2020/07/26 16:39:48;;;;;;;4;1.4;;;;;;;;;;;;;
2020/07/26 16:42:12;;;;;;;2.9;1.7;;;;;;;;;;;;;
2020/07/26 16:44:37;;;;;;;2.5;1.7;;;;;;;;;;;;;
2020/07/26 16:47:02;;;;;;;1.8;1.4;;;;;;;;;;;;;
2020/07/26 16:49:27;;;;;;;2.6;1.5;;;;;;;;;;;;;
2020/07/26 16:51:52;;;;;;;4.8;1.5;;;;;;;;;;;;;
2020/07/26 16:54:18;;;;;;;2.5;1.5;;;;;;;;;;;;;
2020/07/26 16:56:43;;;;;;;2.6;1.5;;;;;;;;;;;;;
2020/07/26 16:59:08;;;;;;;4.7;1.7;;;;;;;;;;;;;
2020/07/26 17:01:34;;;;;;;1.6;1.2;;;;;;;;;;;;;
2020/07/26 17:03:59;;;;;;;2.6;1.3;;;;;;;;;;;;;
2020/07/26 17:06:25;;;;;;;2.1;1.3;;;;;;;;;;;;;
2020/07/26 17:08:49;;;;;;;3.6;1.5;;;;;;;;;;;;;
2020/07/26 17:11:16;;;;;;;3.1;1.2;;;;;;;;;;;;;
2020/07/26 17:13:41;;;;;;;1.7;1.2;;;;;;;;;;;;;
2020/07/26 17:16:07;;;;;;;2.2;1.1;;;;;;;;;;;;;
2020/07/26 17:18:32;;;;;;;1.9;1.2;;;;;;;;;;;;;
2020/07/26 17:20:58;;;;;;;6.1;4.3;;;;;;;;;;;;;
2020/07/26 17:23:23;;;;;;;17.3;15.6;;;;;;;;;;;;;
2020/07/26 17:25:48;;;;;;;10.6;9.5;;;;;;;;;;;;;
2020/07/26 17:28:13;;;;;;;3;1.3;;;;;;;;;;;;;
2020/07/26 17:30:38;;;;;;;3.2;1.4;;;;;;;;;;;;;
2020/07/26 17:33:03;;;;;;;7.6;1.6;;;;;;;;;;;;;
2020/07/26 17:35:28;;;;;;;3.5;1.6;;;;;;;;;;;;;
2020/07/26 17:37:54;;;;;;;3.1;1.6;;;;;;;;;;;;;
2020/07/26 17:40:19;;;;;;;2.3;1.3;;;;;;;;;;;;;
2020/07/26 17:42:44;;;;;;;3;1.6;;;;;;;;;;;;;
2020/07/26 17:45:11;;;;;;;3.7;1.7;;;;;;;;;;;;;
2020/07/26 17:47:36;;;;;;;4.1;1.5;;;;;;;;;;;;;
2020/07/26 17:50:01;;;;;;;2.3;1.3;;;;;;;;;;;;;